Etusivu
METAR-TAF:

METAR-TAF

Lentoasemat :

Savonlinna, Suomi

Savonlinnan lentoasema

Leveyspiiri: 61-57N, Pituuspiiri: 028-57E, korkeus merenpinnasta: 95 m

Tämänhetkinen sää

Tämä raportti tehtiin 33 minuuttia sitten, kello 13.50 UTC
Tuuli 4 kn lännestä
Lämpötila -21°C
Kosteus 84%
Ilmanpaine 1011 hPa
Näkyvyys 10 km tai enemmän
ei pilviä alle 1500 m:ssä eikä cumulonimbus-pilviä

METAR: EFSA 221350Z AUTO 26004KT CAVOK M21/M23 Q1011

Aika: 16:23 (14:23 UTC)

Sääennuste

Tämä raportti tehtiin 2 tuntia ja 50 minuuttia sitten, kello 11.33 UTC
Ennuste voimassa 22. päivästä klo 12 UTC - 22. päivään klo 21 UTC
Tuuli 2 kn lännestä/luoteesta
Näkyvyys 10 km tai enemmän
ei pilviä alle 1500 m:ssä eikä cumulonimbus-pilviä

TAF: EFSA 221133Z 2212/2221 29002KT CAVOK

Säähavainnot ja -ennusteet yli 4000 lentoasemalta (METAR- ja TAF-raportit).

Käytössä olevat sääasemat on merkitty karttaan keltaisilla ja punaisilla pisteillä.

Aseta hiiri pisteen päälle nähdäksesi sääaseman nimen.

Klikkaa sitten nähdäksesi säähavainnot ja -ennusteet.

Kartan vaihtaminen: klikkaa mustalla rastilla varustettuja vihreitä pisteitä, niin voit zoomata sisään; viivalla varustettua vihreää pistettä, niin voit zoomata ulos tai vihreitä nuolia, niin pääset viereisille kartoille.


METAR-TAF: